sensor_id;sensor_type;location;lat;lon;timestamp;temperature;humidity
38973;DHT22;25333;50.762;4.470;2023-02-28T00:00:15;-0.30;99.90
38973;DHT22;25333;50.762;4.470;2023-02-28T00:02:44;-0.30;99.90
38973;DHT22;25333;50.762;4.470;2023-02-28T00:05:11;-0.30;99.90
38973;DHT22;25333;50.762;4.470;2023-02-28T00:07:37;-0.30;99.90
38973;DHT22;25333;50.762;4.470;2023-02-28T00:10:05;-0.20;99.90
38973;DHT22;25333;50.762;4.470;2023-02-28T00:12:35;-0.30;99.90
38973;DHT22;25333;50.762;4.470;2023-02-28T00:15:02;-0.30;99.90
38973;DHT22;25333;50.762;4.470;2023-02-28T00:17:27;-0.20;99.90
38973;DHT22;25333;50.762;4.470;2023-02-28T00:19:53;-0.40;99.90
38973;DHT22;25333;50.762;4.470;2023-02-28T00:22:20;-0.40;99.90
38973;DHT22;25333;50.762;4.470;2023-02-28T00:24:46;-0.50;99.90
38973;DHT22;25333;50.762;4.470;2023-02-28T00:27:12;-0.50;99.90
38973;DHT22;25333;50.762;4.470;2023-02-28T00:29:38;-0.50;99.90
38973;DHT22;25333;50.762;4.470;2023-02-28T00:32:05;-0.50;99.90
38973;DHT22;25333;50.762;4.470;2023-02-28T00:34:31;-0.40;99.90
38973;DHT22;25333;50.762;4.470;2023-02-28T00:36:56;-0.30;99.90
38973;DHT22;25333;50.762;4.470;2023-02-28T00:39:22;-0.30;99.90
38973;DHT22;25333;50.762;4.470;2023-02-28T00:41:47;-0.30;99.90
38973;DHT22;25333;50.762;4.470;2023-02-28T00:44:13;-0.20;99.90
38973;DHT22;25333;50.762;4.470;2023-02-28T00:46:38;-0.10;99.90
38973;DHT22;25333;50.762;4.470;2023-02-28T00:49:04;0.00;99.90
38973;DHT22;25333;50.762;4.470;2023-02-28T00:51:30;-0.10;99.90
38973;DHT22;25333;50.762;4.470;2023-02-28T00:53:55;-0.10;99.90
38973;DHT22;25333;50.762;4.470;2023-02-28T00:56:21;-0.20;99.90
38973;DHT22;25333;50.762;4.470;2023-02-28T00:58:46;-0.20;99.90
38973;DHT22;25333;50.762;4.470;2023-02-28T01:01:12;-0.20;99.90
38973;DHT22;25333;50.762;4.470;2023-02-28T01:03:38;-0.10;99.90
38973;DHT22;25333;50.762;4.470;2023-02-28T01:06:04;0.00;99.90
38973;DHT22;25333;50.762;4.470;2023-02-28T01:08:29;0.00;99.90
38973;DHT22;25333;50.762;4.470;2023-02-28T01:10:55;0.00;99.90
38973;DHT22;25333;50.762;4.470;2023-02-28T01:13:21;-0.10;99.90
38973;DHT22;25333;50.762;4.470;2023-02-28T01:15:51;-0.10;99.90
38973;DHT22;25333;50.762;4.470;2023-02-28T01:18:18;-0.20;99.90
38973;DHT22;25333;50.762;4.470;2023-02-28T01:20:44;-0.30;99.90
38973;DHT22;25333;50.762;4.470;2023-02-28T01:23:11;-0.30;99.90
38973;DHT22;25333;50.762;4.470;2023-02-28T01:25:37;-0.40;99.90
38973;DHT22;25333;50.762;4.470;2023-02-28T01:28:04;-0.50;99.90
38973;DHT22;25333;50.762;4.470;2023-02-28T01:30:30;-0.50;99.90
38973;DHT22;25333;50.762;4.470;2023-02-28T01:32:56;-0.50;99.90
38973;DHT22;25333;50.762;4.470;2023-02-28T01:35:21;-0.50;99.90
38973;DHT22;25333;50.762;4.470;2023-02-28T01:37:47;-0.40;99.90
38973;DHT22;25333;50.762;4.470;2023-02-28T01:40:13;-0.40;99.90
38973;DHT22;25333;50.762;4.470;2023-02-28T01:42:39;-0.40;99.90
38973;DHT22;25333;50.762;4.470;2023-02-28T01:45:30;-0.40;99.90
38973;DHT22;25333;50.762;4.470;2023-02-28T01:48:01;-0.40;99.90
38973;DHT22;25333;50.762;4.470;2023-02-28T01:50:33;-0.40;99.90
38973;DHT22;25333;50.762;4.470;2023-02-28T01:53:02;-0.50;99.90
38973;DHT22;25333;50.762;4.470;2023-02-28T01:55:30;-0.50;99.90
38973;DHT22;25333;50.762;4.470;2023-02-28T01:57:59;-0.50;99.90
38973;DHT22;25333;50.762;4.470;2023-02-28T02:00:26;-0.50;99.90
38973;DHT22;25333;50.762;4.470;2023-02-28T02:02:57;-0.60;99.90
38973;DHT22;25333;50.762;4.470;2023-02-28T02:05:29;-0.60;99.90
38973;DHT22;25333;50.762;4.470;2023-02-28T02:08:00;-0.60;99.90
38973;DHT22;25333;50.762;4.470;2023-02-28T02:13:28;-0.60;99.90
38973;DHT22;25333;50.762;4.470;2023-02-28T02:16:22;-0.70;99.90
38973;DHT22;25333;50.762;4.470;2023-02-28T02:18:53;-0.70;99.90
38973;DHT22;25333;50.762;4.470;2023-02-28T02:24:54;-0.70;99.90
38973;DHT22;25333;50.762;4.470;2023-02-28T02:29:47;-0.70;99.90
38973;DHT22;25333;50.762;4.470;2023-02-28T02:40:31;-0.80;99.90
38973;DHT22;25333;50.762;4.470;2023-02-28T02:43:03;-0.80;99.90
38973;DHT22;25333;50.762;4.470;2023-02-28T02:48:19;-0.90;99.90
38973;DHT22;25333;50.762;4.470;2023-02-28T02:50:51;-0.80;99.90
38973;DHT22;25333;50.762;4.470;2023-02-28T02:53:20;-0.80;99.90
38973;DHT22;25333;50.762;4.470;2023-02-28T02:55:49;-0.80;99.90
38973;DHT22;25333;50.762;4.470;2023-02-28T02:58:22;-0.80;99.90
38973;DHT22;25333;50.762;4.470;2023-02-28T03:00:53;-0.70;99.90
38973;DHT22;25333;50.762;4.470;2023-02-28T03:03:20;-0.90;99.90
38973;DHT22;25333;50.762;4.470;2023-02-28T03:05:55;-0.90;99.90
38973;DHT22;25333;50.762;4.470;2023-02-28T03:08:21;-1.00;99.90
38973;DHT22;25333;50.762;4.470;2023-02-28T03:10:52;-1.10;99.90
38973;DHT22;25333;50.762;4.470;2023-02-28T03:21:23;-1.10;99.90
38973;DHT22;25333;50.762;4.470;2023-02-28T03:26:51;-1.20;99.90
38973;DHT22;25333;50.762;4.470;2023-02-28T03:29:21;-1.10;99.90
38973;DHT22;25333;50.762;4.470;2023-02-28T03:31:54;-1.10;99.90
38973;DHT22;25333;50.762;4.470;2023-02-28T03:34:29;-1.20;99.90
38973;DHT22;25333;50.762;4.470;2023-02-28T03:36:59;-1.20;99.90
38973;DHT22;25333;50.762;4.470;2023-02-28T03:39:37;-1.20;99.90
38973;DHT22;25333;50.762;4.470;2023-02-28T03:42:13;-1.30;99.90
38973;DHT22;25333;50.762;4.470;2023-02-28T03:44:43;-1.40;99.90
38973;DHT22;25333;50.762;4.470;2023-02-28T03:47:23;-1.40;99.90
38973;DHT22;25333;50.762;4.470;2023-02-28T03:49:54;-1.30;99.90
38973;DHT22;25333;50.762;4.470;2023-02-28T03:52:26;-1.40;99.90
38973;DHT22;25333;50.762;4.470;2023-02-28T03:54:54;-1.50;99.90
38973;DHT22;25333;50.762;4.470;2023-02-28T03:57:38;-1.50;99.90
38973;DHT22;25333;50.762;4.470;2023-02-28T04:00:12;-1.50;99.90
38973;DHT22;25333;50.762;4.470;2023-02-28T04:02:39;-1.40;99.90
38973;DHT22;25333;50.762;4.470;2023-02-28T04:05:06;-1.40;99.90
38973;DHT22;25333;50.762;4.470;2023-02-28T04:07:32;-1.40;99.90
38973;DHT22;25333;50.762;4.470;2023-02-28T04:09:58;-1.30;99.90
38973;DHT22;25333;50.762;4.470;2023-02-28T04:12:23;-1.40;99.90
38973;DHT22;25333;50.762;4.470;2023-02-28T04:14:50;-1.40;99.90
38973;DHT22;25333;50.762;4.470;2023-02-28T04:17:16;-1.40;99.90
38973;DHT22;25333;50.762;4.470;2023-02-28T04:19:42;-1.30;99.90
38973;DHT22;25333;50.762;4.470;2023-02-28T04:22:09;-1.30;99.90
38973;DHT22;25333;50.762;4.470;2023-02-28T04:24:35;-1.40;99.90
38973;DHT22;25333;50.762;4.470;2023-02-28T04:27:01;-1.40;99.90
38973;DHT22;25333;50.762;4.470;2023-02-28T04:29:30;-1.50;99.90
38973;DHT22;25333;50.762;4.470;2023-02-28T04:31:58;-1.50;99.90
38973;DHT22;25333;50.762;4.470;2023-02-28T04:34:28;-1.50;99.90
38973;DHT22;25333;50.762;4.470;2023-02-28T04:36:55;-1.60;99.90
38973;DHT22;25333;50.762;4.470;2023-02-28T04:39:24;-1.50;99.90
38973;DHT22;25333;50.762;4.470;2023-02-28T04:41:50;-1.40;99.90
38973;DHT22;25333;50.762;4.470;2023-02-28T04:44:16;-1.70;99.90
38973;DHT22;25333;50.762;4.470;2023-02-28T04:46:43;-1.70;99.90
38973;DHT22;25333;50.762;4.470;2023-02-28T04:49:11;-1.70;99.90
38973;DHT22;25333;50.762;4.470;2023-02-28T04:51:37;-1.80;99.90
38973;DHT22;25333;50.762;4.470;2023-02-28T04:54:02;-1.80;99.90
38973;DHT22;25333;50.762;4.470;2023-02-28T04:56:28;-1.90;99.90
38973;DHT22;25333;50.762;4.470;2023-02-28T04:58:54;-1.80;99.90
38973;DHT22;25333;50.762;4.470;2023-02-28T05:01:23;-1.70;99.90
38973;DHT22;25333;50.762;4.470;2023-02-28T05:03:50;-1.60;99.90
38973;DHT22;25333;50.762;4.470;2023-02-28T05:06:16;-1.70;99.90
38973;DHT22;25333;50.762;4.470;2023-02-28T05:08:42;-1.80;99.90
38973;DHT22;25333;50.762;4.470;2023-02-28T05:11:21;-1.70;99.90
38973;DHT22;25333;50.762;4.470;2023-02-28T05:13:47;-1.70;99.90
38973;DHT22;25333;50.762;4.470;2023-02-28T05:16:14;-1.60;99.90
38973;DHT22;25333;50.762;4.470;2023-02-28T05:18:40;-1.60;99.90
38973;DHT22;25333;50.762;4.470;2023-02-28T05:21:06;-1.70;99.90
38973;DHT22;25333;50.762;4.470;2023-02-28T05:23:32;-1.70;99.90
38973;DHT22;25333;50.762;4.470;2023-02-28T05:25:58;-1.60;99.90
38973;DHT22;25333;50.762;4.470;2023-02-28T05:28:23;-1.50;99.90
38973;DHT22;25333;50.762;4.470;2023-02-28T05:30:49;-1.50;99.90
38973;DHT22;25333;50.762;4.470;2023-02-28T05:33:14;-1.60;99.90
38973;DHT22;25333;50.762;4.470;2023-02-28T05:35:41;-1.60;99.90
38973;DHT22;25333;50.762;4.470;2023-02-28T05:38:08;-1.40;99.90
38973;DHT22;25333;50.762;4.470;2023-02-28T05:40:34;-1.50;99.90
38973;DHT22;25333;50.762;4.470;2023-02-28T05:43:00;-1.60;99.90
38973;DHT22;25333;50.762;4.470;2023-02-28T05:45:26;-1.60;99.90
38973;DHT22;25333;50.762;4.470;2023-02-28T05:47:55;-1.50;99.90
38973;DHT22;25333;50.762;4.470;2023-02-28T05:50:21;-1.40;99.90
38973;DHT22;25333;50.762;4.470;2023-02-28T05:52:50;-1.50;99.90
38973;DHT22;25333;50.762;4.470;2023-02-28T05:55:16;-1.40;99.90
38973;DHT22;25333;50.762;4.470;2023-02-28T05:57:42;-1.40;99.90
38973;DHT22;25333;50.762;4.470;2023-02-28T06:00:08;-1.30;99.90
38973;DHT22;25333;50.762;4.470;2023-02-28T06:02:34;-1.40;99.90
38973;DHT22;25333;50.762;4.470;2023-02-28T06:05:00;-1.30;99.90
38973;DHT22;25333;50.762;4.470;2023-02-28T06:07:25;-1.30;99.90
38973;DHT22;25333;50.762;4.470;2023-02-28T06:09:51;-1.30;99.90
38973;DHT22;25333;50.762;4.470;2023-02-28T06:12:16;-1.30;99.90
38973;DHT22;25333;50.762;4.470;2023-02-28T06:14:43;-1.20;99.90
38973;DHT22;25333;50.762;4.470;2023-02-28T06:17:09;-1.10;99.90
38973;DHT22;25333;50.762;4.470;2023-02-28T06:19:37;-1.10;99.90
38973;DHT22;25333;50.762;4.470;2023-02-28T06:22:04;-1.00;99.90
38973;DHT22;25333;50.762;4.470;2023-02-28T06:24:29;-0.90;99.90
38973;DHT22;25333;50.762;4.470;2023-02-28T06:26:56;-0.90;99.90
38973;DHT22;25333;50.762;4.470;2023-02-28T06:29:24;-0.80;99.90
38973;DHT22;25333;50.762;4.470;2023-02-28T06:31:50;-0.80;99.90
38973;DHT22;25333;50.762;4.470;2023-02-28T06:34:16;-0.80;99.90
38973;DHT22;25333;50.762;4.470;2023-02-28T06:36:42;-0.90;99.90
38973;DHT22;25333;50.762;4.470;2023-02-28T06:39:08;-1.00;99.90
38973;DHT22;25333;50.762;4.470;2023-02-28T06:41:35;-1.00;99.90
38973;DHT22;25333;50.762;4.470;2023-02-28T06:44:08;-1.00;99.90
38973;DHT22;25333;50.762;4.470;2023-02-28T06:46:36;-1.00;99.90
38973;DHT22;25333;50.762;4.470;2023-02-28T06:49:02;-0.90;99.90
38973;DHT22;25333;50.762;4.470;2023-02-28T06:51:27;-0.90;99.90
38973;DHT22;25333;50.762;4.470;2023-02-28T06:53:53;-0.80;99.90
38973;DHT22;25333;50.762;4.470;2023-02-28T06:56:19;-0.80;99.90
38973;DHT22;25333;50.762;4.470;2023-02-28T06:58:49;-1.00;99.90
38973;DHT22;25333;50.762;4.470;2023-02-28T07:01:16;-0.90;99.90
38973;DHT22;25333;50.762;4.470;2023-02-28T07:03:42;-1.00;99.90
38973;DHT22;25333;50.762;4.470;2023-02-28T07:06:08;-0.90;99.90
38973;DHT22;25333;50.762;4.470;2023-02-28T07:08:34;-1.00;99.90
38973;DHT22;25333;50.762;4.470;2023-02-28T07:11:01;-0.90;99.90
38973;DHT22;25333;50.762;4.470;2023-02-28T07:13:26;-0.80;99.90
38973;DHT22;25333;50.762;4.470;2023-02-28T07:15:59;-0.80;99.90
38973;DHT22;25333;50.762;4.470;2023-02-28T07:18:25;-0.80;99.90
38973;DHT22;25333;50.762;4.470;2023-02-28T07:20:51;-0.70;99.90
38973;DHT22;25333;50.762;4.470;2023-02-28T07:23:17;-0.70;99.90
38973;DHT22;25333;50.762;4.470;2023-02-28T07:25:43;-0.50;99.90
38973;DHT22;25333;50.762;4.470;2023-02-28T07:28:09;-0.40;99.90
38973;DHT22;25333;50.762;4.470;2023-02-28T07:30:35;-0.30;99.90
38973;DHT22;25333;50.762;4.470;2023-02-28T07:33:00;0.00;99.90
38973;DHT22;25333;50.762;4.470;2023-02-28T07:35:26;0.20;99.90
38973;DHT22;25333;50.762;4.470;2023-02-28T07:37:51;0.30;99.90
38973;DHT22;25333;50.762;4.470;2023-02-28T07:40:17;0.50;99.90
38973;DHT22;25333;50.762;4.470;2023-02-28T07:42:43;0.60;99.90
38973;DHT22;25333;50.762;4.470;2023-02-28T07:45:10;0.70;99.90
38973;DHT22;25333;50.762;4.470;2023-02-28T07:47:41;0.90;99.90
38973;DHT22;25333;50.762;4.470;2023-02-28T07:50:11;1.00;99.90
38973;DHT22;25333;50.762;4.470;2023-02-28T07:52:37;1.10;99.90
38973;DHT22;25333;50.762;4.470;2023-02-28T07:55:04;1.20;99.90
38973;DHT22;25333;50.762;4.470;2023-02-28T07:57:30;1.20;99.90
38973;DHT22;25333;50.762;4.470;2023-02-28T07:59:56;1.40;99.90
38973;DHT22;25333;50.762;4.470;2023-02-28T08:02:22;1.50;99.90
38973;DHT22;25333;50.762;4.470;2023-02-28T08:04:47;1.70;99.90
38973;DHT22;25333;50.762;4.470;2023-02-28T08:07:14;1.70;99.90
38973;DHT22;25333;50.762;4.470;2023-02-28T08:09:40;1.80;99.90
38973;DHT22;25333;50.762;4.470;2023-02-28T08:12:07;1.90;99.90
38973;DHT22;25333;50.762;4.470;2023-02-28T08:14:36;2.00;99.90
38973;DHT22;25333;50.762;4.470;2023-02-28T08:17:05;2.00;99.90
38973;DHT22;25333;50.762;4.470;2023-02-28T08:19:32;2.10;99.90
38973;DHT22;25333;50.762;4.470;2023-02-28T08:21:58;2.30;99.90
38973;DHT22;25333;50.762;4.470;2023-02-28T08:24:24;2.50;99.90
38973;DHT22;25333;50.762;4.470;2023-02-28T08:27:07;2.60;99.90
38973;DHT22;25333;50.762;4.470;2023-02-28T08:29:32;2.80;99.70
38973;DHT22;25333;50.762;4.470;2023-02-28T08:31:58;2.90;98.80
38973;DHT22;25333;50.762;4.470;2023-02-28T08:34:24;2.90;98.00
38973;DHT22;25333;50.762;4.470;2023-02-28T08:36:49;2.80;98.00
38973;DHT22;25333;50.762;4.470;2023-02-28T08:39:15;2.90;98.40
38973;DHT22;25333;50.762;4.470;2023-02-28T08:41:42;2.90;97.30
38973;DHT22;25333;50.762;4.470;2023-02-28T08:44:08;2.90;97.40
38973;DHT22;25333;50.762;4.470;2023-02-28T08:46:33;3.10;98.20
38973;DHT22;25333;50.762;4.470;2023-02-28T08:48:59;3.10;97.10
38973;DHT22;25333;50.762;4.470;2023-02-28T08:51:27;3.20;97.90
38973;DHT22;25333;50.762;4.470;2023-02-28T08:53:54;3.30;96.40
38973;DHT22;25333;50.762;4.470;2023-02-28T08:56:21;3.60;96.10
38973;DHT22;25333;50.762;4.470;2023-02-28T08:58:48;3.70;95.80
38973;DHT22;25333;50.762;4.470;2023-02-28T09:01:16;3.70;95.40
38973;DHT22;25333;50.762;4.470;2023-02-28T09:03:43;3.60;95.50
38973;DHT22;25333;50.762;4.470;2023-02-28T09:06:30;3.50;95.50
38973;DHT22;25333;50.762;4.470;2023-02-28T09:08:57;3.70;95.60
38973;DHT22;25333;50.762;4.470;2023-02-28T09:11:30;4.00;95.60
38973;DHT22;25333;50.762;4.470;2023-02-28T09:13:59;4.10;94.90
38973;DHT22;25333;50.762;4.470;2023-02-28T09:16:26;4.10;95.00
38973;DHT22;25333;50.762;4.470;2023-02-28T09:19:21;4.20;94.50
38973;DHT22;25333;50.762;4.470;2023-02-28T09:28:01;4.40;93.20
38973;DHT22;25333;50.762;4.470;2023-02-28T09:30:36;4.50;93.20
38973;DHT22;25333;50.762;4.470;2023-02-28T09:33:02;4.60;91.90
38973;DHT22;25333;50.762;4.470;2023-02-28T09:35:28;4.60;93.00
38973;DHT22;25333;50.762;4.470;2023-02-28T09:37:53;4.70;93.00
38973;DHT22;25333;50.762;4.470;2023-02-28T09:40:21;4.60;91.90
38973;DHT22;25333;50.762;4.470;2023-02-28T09:42:49;4.50;92.20
38973;DHT22;25333;50.762;4.470;2023-02-28T09:54:22;4.60;90.70
38973;DHT22;25333;50.762;4.470;2023-02-28T10:00:39;4.40;91.60
38973;DHT22;25333;50.762;4.470;2023-02-28T10:12:08;6.10;87.00
38973;DHT22;25333;50.762;4.470;2023-02-28T10:14:50;6.10;85.60
38973;DHT22;25333;50.762;4.470;2023-02-28T10:23:02;5.70;81.20
38973;DHT22;25333;50.762;4.470;2023-02-28T10:25:34;5.80;83.00
38973;DHT22;25333;50.762;4.470;2023-02-28T10:28:30;6.10;82.20
38973;DHT22;25333;50.762;4.470;2023-02-28T10:30:59;5.80;79.90
38973;DHT22;25333;50.762;4.470;2023-02-28T10:33:28;6.30;82.60
38973;DHT22;25333;50.762;4.470;2023-02-28T10:36:04;6.40;79.70
38973;DHT22;25333;50.762;4.470;2023-02-28T10:38:39;6.60;81.10
38973;DHT22;25333;50.762;4.470;2023-02-28T10:41:30;6.50;82.30
38973;DHT22;25333;50.762;4.470;2023-02-28T10:44:53;6.70;79.90
38973;DHT22;25333;50.762;4.470;2023-02-28T10:54:06;7.20;80.20
38973;DHT22;25333;50.762;4.470;2023-02-28T10:56:40;7.30;78.40
38973;DHT22;25333;50.762;4.470;2023-02-28T10:59:28;6.80;78.10
38973;DHT22;25333;50.762;4.470;2023-02-28T11:02:34;6.40;80.00
38973;DHT22;25333;50.762;4.470;2023-02-28T11:05:38;6.40;81.20
38973;DHT22;25333;50.762;4.470;2023-02-28T11:08:15;6.40;79.30
38973;DHT22;25333;50.762;4.470;2023-02-28T11:10:46;6.30;77.00
38973;DHT22;25333;50.762;4.470;2023-02-28T11:13:19;6.10;77.50
38973;DHT22;25333;50.762;4.470;2023-02-28T11:16:17;6.10;78.40
38973;DHT22;25333;50.762;4.470;2023-02-28T11:18:46;6.30;76.50
38973;DHT22;25333;50.762;4.470;2023-02-28T11:21:38;6.30;76.30
38973;DHT22;25333;50.762;4.470;2023-02-28T11:24:35;6.00;77.90
38973;DHT22;25333;50.762;4.470;2023-02-28T11:27:02;6.20;77.10
38973;DHT22;25333;50.762;4.470;2023-02-28T11:29:32;6.50;77.50
38973;DHT22;25333;50.762;4.470;2023-02-28T11:32:19;6.60;78.30
38973;DHT22;25333;50.762;4.470;2023-02-28T11:35:23;6.80;77.30
38973;DHT22;25333;50.762;4.470;2023-02-28T11:38:12;6.50;77.50
38973;DHT22;25333;50.762;4.470;2023-02-28T11:41:05;5.90;78.50
38973;DHT22;25333;50.762;4.470;2023-02-28T11:52:20;6.10;77.50
38973;DHT22;25333;50.762;4.470;2023-02-28T11:55:00;5.80;76.20
38973;DHT22;25333;50.762;4.470;2023-02-28T12:03:27;6.00;77.50
38973;DHT22;25333;50.762;4.470;2023-02-28T12:06:13;6.00;75.50
38973;DHT22;25333;50.762;4.470;2023-02-28T12:12:15;5.70;77.00
38973;DHT22;25333;50.762;4.470;2023-02-28T12:18:43;5.60;77.50
38973;DHT22;25333;50.762;4.470;2023-02-28T12:24:00;5.50;75.90
38973;DHT22;25333;50.762;4.470;2023-02-28T12:26:43;5.40;76.50
38973;DHT22;25333;50.762;4.470;2023-02-28T12:29:14;5.50;74.80
38973;DHT22;25333;50.762;4.470;2023-02-28T12:32:01;5.60;75.50
38973;DHT22;25333;50.762;4.470;2023-02-28T12:34:36;5.40;74.20
38973;DHT22;25333;50.762;4.470;2023-02-28T12:37:10;4.90;76.10
38973;DHT22;25333;50.762;4.470;2023-02-28T12:39:49;5.00;76.30
38973;DHT22;25333;50.762;4.470;2023-02-28T12:44:53;5.10;76.90
38973;DHT22;25333;50.762;4.470;2023-02-28T12:47:19;5.30;79.00
38973;DHT22;25333;50.762;4.470;2023-02-28T12:49:56;5.50;76.60
38973;DHT22;25333;50.762;4.470;2023-02-28T12:56:09;5.50;75.80
38973;DHT22;25333;50.762;4.470;2023-02-28T12:58:37;5.30;77.80
38973;DHT22;25333;50.762;4.470;2023-02-28T13:07:00;5.40;74.80
38973;DHT22;25333;50.762;4.470;2023-02-28T13:09:31;5.20;76.10
38973;DHT22;25333;50.762;4.470;2023-02-28T13:11:58;5.10;76.20
38973;DHT22;25333;50.762;4.470;2023-02-28T13:24:55;5.20;75.70
38973;DHT22;25333;50.762;4.470;2023-02-28T13:29:52;5.20;75.50
38973;DHT22;25333;50.762;4.470;2023-02-28T13:32:19;5.10;74.80
38973;DHT22;25333;50.762;4.470;2023-02-28T13:39:52;5.00;74.90
38973;DHT22;25333;50.762;4.470;2023-02-28T13:47:43;5.30;73.30
38973;DHT22;25333;50.762;4.470;2023-02-28T13:55:46;5.00;74.20
38973;DHT22;25333;50.762;4.470;2023-02-28T14:04:54;5.40;75.50
38973;DHT22;25333;50.762;4.470;2023-02-28T14:07:15;5.30;74.30
38973;DHT22;25333;50.762;4.470;2023-02-28T14:09:46;5.20;74.20
38973;DHT22;25333;50.762;4.470;2023-02-28T14:18:01;5.00;75.20
38973;DHT22;25333;50.762;4.470;2023-02-28T14:20:31;5.00;75.00
38973;DHT22;25333;50.762;4.470;2023-02-28T14:28:50;5.10;76.00
38973;DHT22;25333;50.762;4.470;2023-02-28T14:31:34;5.20;73.90
38973;DHT22;25333;50.762;4.470;2023-02-28T14:34:17;5.30;75.10
38973;DHT22;25333;50.762;4.470;2023-02-28T14:36:47;5.20;75.00
38973;DHT22;25333;50.762;4.470;2023-02-28T14:39:16;5.20;75.10
38973;DHT22;25333;50.762;4.470;2023-02-28T14:41:43;5.20;75.30
38973;DHT22;25333;50.762;4.470;2023-02-28T14:46:52;5.10;74.60
38973;DHT22;25333;50.762;4.470;2023-02-28T14:49:42;5.00;75.00
38973;DHT22;25333;50.762;4.470;2023-02-28T14:52:19;5.00;75.20
38973;DHT22;25333;50.762;4.470;2023-02-28T14:54:46;5.00;75.30
38973;DHT22;25333;50.762;4.470;2023-02-28T14:57:25;4.90;75.10
38973;DHT22;25333;50.762;4.470;2023-02-28T15:02:34;4.90;75.40
38973;DHT22;25333;50.762;4.470;2023-02-28T15:07:42;4.90;75.30
38973;DHT22;25333;50.762;4.470;2023-02-28T15:10:22;4.90;75.10
38973;DHT22;25333;50.762;4.470;2023-02-28T15:15:17;4.90;74.60
38973;DHT22;25333;50.762;4.470;2023-02-28T15:17:52;4.80;76.00
38973;DHT22;25333;50.762;4.470;2023-02-28T15:20:19;4.80;75.00
38973;DHT22;25333;50.762;4.470;2023-02-28T15:22:46;4.70;74.70
38973;DHT22;25333;50.762;4.470;2023-02-28T15:25:15;4.60;76.90
38973;DHT22;25333;50.762;4.470;2023-02-28T15:27:50;4.70;75.30
38973;DHT22;25333;50.762;4.470;2023-02-28T15:30:27;4.70;76.60
38973;DHT22;25333;50.762;4.470;2023-02-28T15:33:19;4.80;76.60
38973;DHT22;25333;50.762;4.470;2023-02-28T15:35:45;4.90;75.00
38973;DHT22;25333;50.762;4.470;2023-02-28T15:40:40;5.10;75.70
38973;DHT22;25333;50.762;4.470;2023-02-28T15:43:14;5.00;76.20
38973;DHT22;25333;50.762;4.470;2023-02-28T15:46:13;5.00;75.80
38973;DHT22;25333;50.762;4.470;2023-02-28T15:48:55;4.90;76.40
38973;DHT22;25333;50.762;4.470;2023-02-28T15:51:31;4.80;76.20
38973;DHT22;25333;50.762;4.470;2023-02-28T15:54:11;4.90;75.80
38973;DHT22;25333;50.762;4.470;2023-02-28T15:56:46;4.80;75.50
38973;DHT22;25333;50.762;4.470;2023-02-28T15:59:17;4.70;77.80
38973;DHT22;25333;50.762;4.470;2023-02-28T16:01:44;4.70;76.20
38973;DHT22;25333;50.762;4.470;2023-02-28T16:04:15;4.70;76.90
38973;DHT22;25333;50.762;4.470;2023-02-28T16:06:47;4.70;77.00
38973;DHT22;25333;50.762;4.470;2023-02-28T16:09:25;4.60;77.10
38973;DHT22;25333;50.762;4.470;2023-02-28T16:11:54;4.60;77.40
38973;DHT22;25333;50.762;4.470;2023-02-28T16:14:22;4.80;77.70
38973;DHT22;25333;50.762;4.470;2023-02-28T16:16:50;4.80;79.00
38973;DHT22;25333;50.762;4.470;2023-02-28T16:19:17;4.70;78.20
38973;DHT22;25333;50.762;4.470;2023-02-28T16:21:43;4.80;78.20
38973;DHT22;25333;50.762;4.470;2023-02-28T16:24:09;4.80;79.00
38973;DHT22;25333;50.762;4.470;2023-02-28T16:26:34;4.90;78.30
38973;DHT22;25333;50.762;4.470;2023-02-28T16:29:03;4.80;79.10
38973;DHT22;25333;50.762;4.470;2023-02-28T16:31:29;4.80;78.60
38973;DHT22;25333;50.762;4.470;2023-02-28T16:33:55;4.60;79.00
38973;DHT22;25333;50.762;4.470;2023-02-28T16:36:22;4.50;79.40
38973;DHT22;25333;50.762;4.470;2023-02-28T16:38:50;4.50;80.70
38973;DHT22;25333;50.762;4.470;2023-02-28T16:41:22;4.40;80.50
38973;DHT22;25333;50.762;4.470;2023-02-28T16:43:52;4.30;79.30
38973;DHT22;25333;50.762;4.470;2023-02-28T16:46:18;4.30;79.50
38973;DHT22;25333;50.762;4.470;2023-02-28T16:48:45;4.20;80.30
38973;DHT22;25333;50.762;4.470;2023-02-28T16:51:15;4.20;80.80
38973;DHT22;25333;50.762;4.470;2023-02-28T16:53:41;4.20;80.60
38973;DHT22;25333;50.762;4.470;2023-02-28T16:56:20;4.10;80.00
38973;DHT22;25333;50.762;4.470;2023-02-28T16:58:46;4.00;80.50
38973;DHT22;25333;50.762;4.470;2023-02-28T17:01:13;4.00;79.80
38973;DHT22;25333;50.762;4.470;2023-02-28T17:03:39;4.10;80.20
38973;DHT22;25333;50.762;4.470;2023-02-28T17:06:09;4.10;80.10
38973;DHT22;25333;50.762;4.470;2023-02-28T17:08:41;4.10;80.60
38973;DHT22;25333;50.762;4.470;2023-02-28T17:11:07;4.20;81.10
38973;DHT22;25333;50.762;4.470;2023-02-28T17:13:33;4.00;82.40
38973;DHT22;25333;50.762;4.470;2023-02-28T17:16:00;4.00;82.80
38973;DHT22;25333;50.762;4.470;2023-02-28T17:18:26;3.90;80.80
38973;DHT22;25333;50.762;4.470;2023-02-28T17:20:54;3.70;81.80
38973;DHT22;25333;50.762;4.470;2023-02-28T17:23:19;3.70;82.40
38973;DHT22;25333;50.762;4.470;2023-02-28T17:25:45;3.70;81.50
38973;DHT22;25333;50.762;4.470;2023-02-28T17:28:19;3.60;83.00
38973;DHT22;25333;50.762;4.470;2023-02-28T17:30:45;3.70;82.20
38973;DHT22;25333;50.762;4.470;2023-02-28T17:33:12;3.70;82.50
38973;DHT22;25333;50.762;4.470;2023-02-28T17:35:38;3.80;82.90
38973;DHT22;25333;50.762;4.470;2023-02-28T17:38:04;3.80;82.20
38973;DHT22;25333;50.762;4.470;2023-02-28T17:40:29;3.60;83.00
38973;DHT22;25333;50.762;4.470;2023-02-28T17:42:55;3.40;84.60
38973;DHT22;25333;50.762;4.470;2023-02-28T17:45:22;3.30;85.00
38973;DHT22;25333;50.762;4.470;2023-02-28T17:47:49;3.20;85.10
38973;DHT22;25333;50.762;4.470;2023-02-28T17:50:20;3.20;85.90
38973;DHT22;25333;50.762;4.470;2023-02-28T17:52:46;3.10;87.00
38973;DHT22;25333;50.762;4.470;2023-02-28T17:55:12;3.00;87.70
38973;DHT22;25333;50.762;4.470;2023-02-28T17:57:38;2.90;88.30
38973;DHT22;25333;50.762;4.470;2023-02-28T18:00:04;2.80;88.70
38973;DHT22;25333;50.762;4.470;2023-02-28T18:02:32;2.70;90.50
38973;DHT22;25333;50.762;4.470;2023-02-28T18:04:58;2.60;90.80
38973;DHT22;25333;50.762;4.470;2023-02-28T18:07:24;2.60;91.00
38973;DHT22;25333;50.762;4.470;2023-02-28T18:09:50;2.50;91.60
38973;DHT22;25333;50.762;4.470;2023-02-28T18:12:16;2.40;92.20
38973;DHT22;25333;50.762;4.470;2023-02-28T18:14:41;2.30;92.70
38973;DHT22;25333;50.762;4.470;2023-02-28T18:17:09;2.40;92.90
38973;DHT22;25333;50.762;4.470;2023-02-28T18:19:37;2.50;92.70
38973;DHT22;25333;50.762;4.470;2023-02-28T18:22:03;2.40;93.00
38973;DHT22;25333;50.762;4.470;2023-02-28T18:24:31;2.30;92.60
38973;DHT22;25333;50.762;4.470;2023-02-28T18:26:57;2.20;92.10
38973;DHT22;25333;50.762;4.470;2023-02-28T18:29:25;1.90;92.60
38973;DHT22;25333;50.762;4.470;2023-02-28T18:31:52;1.90;93.00
38973;DHT22;25333;50.762;4.470;2023-02-28T18:34:18;1.70;92.90
38973;DHT22;25333;50.762;4.470;2023-02-28T18:36:45;1.60;93.30
38973;DHT22;25333;50.762;4.470;2023-02-28T18:39:13;1.60;93.30
38973;DHT22;25333;50.762;4.470;2023-02-28T18:41:39;1.50;93.60
38973;DHT22;25333;50.762;4.470;2023-02-28T18:44:05;1.40;93.70